createdAt,value
2023-05-10T00:00:20.405Z,14.69
2023-05-10T00:01:20.379Z,14.71
2023-05-10T00:02:20.458Z,14.74
2023-05-10T00:03:20.433Z,14.71
2023-05-10T00:04:20.365Z,14.67
2023-05-10T00:05:20.345Z,14.64
2023-05-10T00:06:20.314Z,14.65
2023-05-10T00:07:20.323Z,14.64
2023-05-10T00:08:20.288Z,14.64
2023-05-10T00:09:20.277Z,14.67
2023-05-10T00:10:20.279Z,14.69
2023-05-10T00:11:22.212Z,14.65
2023-05-10T00:12:20.259Z,14.65
2023-05-10T00:13:20.330Z,14.65
2023-05-10T00:14:20.226Z,14.64
2023-05-10T00:15:20.217Z,14.62
2023-05-10T00:16:20.254Z,14.71
2023-05-10T00:17:20.217Z,14.62
2023-05-10T00:18:20.217Z,14.56
2023-05-10T00:19:20.170Z,14.54
2023-05-10T00:20:20.152Z,14.53
2023-05-10T00:21:20.147Z,14.54
2023-05-10T00:22:20.170Z,14.57
2023-05-10T00:23:20.221Z,14.54
2023-05-10T00:24:20.113Z,14.52
2023-05-10T00:25:20.110Z,14.47
2023-05-10T00:26:20.095Z,14.49
2023-05-10T00:27:20.136Z,14.47
2023-05-10T00:28:20.088Z,14.46
2023-05-10T00:29:20.062Z,14.43
2023-05-10T00:30:20.045Z,14.43
2023-05-10T00:31:20.044Z,14.39
2023-05-10T00:32:20.074Z,14.42
2023-05-10T00:33:20.039Z,14.46
2023-05-10T00:34:20.021Z,14.46
2023-05-10T00:35:19.999Z,14.46
2023-05-10T00:36:19.980Z,14.47
2023-05-10T00:37:19.979Z,14.44
2023-05-10T00:38:20.000Z,14.43
2023-05-10T00:39:19.961Z,14.42
2023-05-10T00:40:19.939Z,14.50
2023-05-10T00:41:19.936Z,14.43
2023-05-10T00:42:19.927Z,14.47
2023-05-10T00:43:19.905Z,14.49
2023-05-10T00:44:19.924Z,14.50
2023-05-10T00:45:19.889Z,14.47
2023-05-10T00:46:19.919Z,14.46
2023-05-10T00:47:19.888Z,14.46
2023-05-10T00:48:19.855Z,14.47
2023-05-10T00:49:19.845Z,14.49
2023-05-10T00:50:19.895Z,14.47
2023-05-10T00:51:19.824Z,14.52
2023-05-10T00:52:19.818Z,14.46
2023-05-10T00:53:19.806Z,14.46
2023-05-10T00:54:19.796Z,14.47
2023-05-10T00:55:19.777Z,14.47
2023-05-10T00:56:19.793Z,14.49
2023-05-10T00:57:19.763Z,14.47
2023-05-10T00:58:19.755Z,14.47
2023-05-10T00:59:19.735Z,14.49
2023-05-10T01:00:19.738Z,14.44
2023-05-10T01:01:19.749Z,14.39
2023-05-10T01:02:19.741Z,14.39
2023-05-10T01:03:19.969Z,14.35
2023-05-10T01:04:19.714Z,14.32
2023-05-10T01:05:19.703Z,14.28
2023-05-10T01:06:19.711Z,14.27
2023-05-10T01:07:19.663Z,14.24
2023-05-10T01:08:19.648Z,14.24
2023-05-10T01:09:19.631Z,14.25
2023-05-10T01:10:19.620Z,14.25
2023-05-10T01:11:19.629Z,14.27
2023-05-10T01:12:19.683Z,14.31
2023-05-10T01:13:19.618Z,14.31
2023-05-10T01:14:19.583Z,14.29
2023-05-10T01:15:19.574Z,14.34
2023-05-10T01:16:19.603Z,14.39
2023-05-10T01:17:19.656Z,14.31
2023-05-10T01:18:19.531Z,14.32
2023-05-10T01:19:19.529Z,14.31
2023-05-10T01:20:19.707Z,14.31
2023-05-10T01:21:19.498Z,14.28
2023-05-10T01:22:19.504Z,14.28
2023-05-10T01:23:19.476Z,14.29
2023-05-10T01:24:19.477Z,14.28
2023-05-10T01:25:19.467Z,14.29
2023-05-10T01:26:19.455Z,14.28
2023-05-10T01:27:19.455Z,14.27
2023-05-10T01:28:19.429Z,14.28
2023-05-10T01:29:19.428Z,14.27
2023-05-10T01:30:22.172Z,14.31
2023-05-10T01:31:19.489Z,14.29
2023-05-10T01:32:19.382Z,14.28
2023-05-10T01:33:19.399Z,14.27
2023-05-10T01:34:19.356Z,14.27
2023-05-10T01:35:19.384Z,14.28
2023-05-10T01:36:19.341Z,14.28
2023-05-10T01:37:19.333Z,14.24
2023-05-10T01:38:19.357Z,14.24
2023-05-10T01:39:19.323Z,14.19
2023-05-10T01:40:19.314Z,14.20
2023-05-10T01:41:19.278Z,14.19
2023-05-10T01:42:19.277Z,14.16
2023-05-10T01:43:19.268Z,14.16
2023-05-10T01:44:19.269Z,14.16
2023-05-10T01:45:19.230Z,14.16
2023-05-10T01:46:19.234Z,14.17
2023-05-10T01:47:19.212Z,14.13
2023-05-10T01:48:19.219Z,14.13
2023-05-10T01:49:19.189Z,14.14
2023-05-10T01:50:19.366Z,14.10
2023-05-10T01:51:19.165Z,14.04
2023-05-10T01:52:19.155Z,13.99
2023-05-10T01:53:19.164Z,13.95
2023-05-10T01:54:19.139Z,13.92
2023-05-10T01:55:19.153Z,13.91
2023-05-10T01:56:19.137Z,13.89
2023-05-10T01:57:19.098Z,13.91
2023-05-10T01:58:19.118Z,13.91
2023-05-10T01:59:19.080Z,13.91
2023-05-10T02:00:19.211Z,13.92
2023-05-10T02:01:19.174Z,13.89
2023-05-10T02:02:19.056Z,13.84
2023-05-10T02:03:19.103Z,13.79
2023-05-10T02:04:19.027Z,13.76
2023-05-10T02:05:19.029Z,13.71
2023-05-10T02:06:19.029Z,13.67
2023-05-10T02:07:18.998Z,13.65
2023-05-10T02:08:19.001Z,13.65
2023-05-10T02:09:18.964Z,13.54
2023-05-10T02:10:19.202Z,13.51
2023-05-10T02:11:18.946Z,13.49
2023-05-10T02:12:18.975Z,13.44
2023-05-10T02:13:18.973Z,13.37
2023-05-10T02:14:18.916Z,13.37
2023-05-10T02:15:18.904Z,13.38
2023-05-10T02:16:18.913Z,13.32
2023-05-10T02:17:18.912Z,13.30
2023-05-10T02:18:18.910Z,13.30
2023-05-10T02:19:18.895Z,13.27
2023-05-10T02:20:19.129Z,13.27
2023-05-10T02:21:18.850Z,13.22
2023-05-10T02:22:18.830Z,13.22
2023-05-10T02:23:18.820Z,13.21
2023-05-10T02:24:18.838Z,13.22
2023-05-10T02:25:18.802Z,13.24
2023-05-10T02:26:18.786Z,13.21
2023-05-10T02:27:18.772Z,13.22
2023-05-10T02:28:18.767Z,13.24
2023-05-10T02:29:18.797Z,13.27
2023-05-10T02:30:18.833Z,13.25
2023-05-10T02:31:18.744Z,13.21
2023-05-10T02:32:18.873Z,13.22
2023-05-10T02:33:18.707Z,13.24
2023-05-10T02:34:18.698Z,13.21
2023-05-10T02:35:18.687Z,13.22
2023-05-10T02:36:18.706Z,13.20
2023-05-10T02:37:18.671Z,13.18
2023-05-10T02:38:18.656Z,13.18
2023-05-10T02:39:18.644Z,13.18
2023-05-10T02:40:18.937Z,13.18
2023-05-10T02:41:18.643Z,13.18
2023-05-10T02:42:18.642Z,13.17
2023-05-10T02:43:18.608Z,13.17
2023-05-10T02:44:18.598Z,13.15
2023-05-10T02:45:18.584Z,13.15
2023-05-10T02:46:18.613Z,13.14
2023-05-10T02:47:18.584Z,13.12
2023-05-10T02:48:18.543Z,13.15
2023-05-10T02:49:18.540Z,13.15
2023-05-10T02:50:18.729Z,13.15
2023-05-10T02:51:18.574Z,13.14
2023-05-10T02:52:18.527Z,13.14
2023-05-10T02:53:18.497Z,13.12
2023-05-10T02:54:18.484Z,13.11
2023-05-10T02:55:18.487Z,13.11
2023-05-10T02:56:18.473Z,13.11
2023-05-10T02:57:18.476Z,13.12
2023-05-10T02:58:18.444Z,13.11
2023-05-10T02:59:18.433Z,13.12
2023-05-10T03:00:18.561Z,13.07
2023-05-10T03:01:18.424Z,13.07
2023-05-10T03:02:18.439Z,13.11
2023-05-10T03:03:18.402Z,13.11
2023-05-10T03:04:18.464Z,13.09
2023-05-10T03:05:18.368Z,13.12
2023-05-10T03:06:18.363Z,13.12
2023-05-10T03:07:18.366Z,13.12
2023-05-10T03:08:18.363Z,13.14
2023-05-10T03:09:18.328Z,13.15
2023-05-10T03:10:18.639Z,13.12
2023-05-10T03:11:18.299Z,13.12
2023-05-10T03:12:18.302Z,13.12
2023-05-10T03:13:18.392Z,13.11
2023-05-10T03:14:18.271Z,13.11
2023-05-10T03:15:18.254Z,13.11
2023-05-10T03:16:18.316Z,13.09
2023-05-10T03:17:18.265Z,13.11
2023-05-10T03:18:18.232Z,13.11
2023-05-10T03:19:18.236Z,13.11
2023-05-10T03:20:18.438Z,13.12
2023-05-10T03:21:18.187Z,13.07
2023-05-10T03:22:18.204Z,13.06
2023-05-10T03:23:18.187Z,13.04
2023-05-10T03:24:18.165Z,13.06
2023-05-10T03:25:18.171Z,13.04
2023-05-10T03:26:18.169Z,13.03
2023-05-10T03:27:18.124Z,13.04
2023-05-10T03:28:18.121Z,13.04
2023-05-10T03:29:18.111Z,13.07
2023-05-10T03:30:18.335Z,13.07
2023-05-10T03:31:18.158Z,13.11
2023-05-10T03:32:18.162Z,13.07
2023-05-10T03:33:18.166Z,13.09
2023-05-10T03:34:18.048Z,13.07
2023-05-10T03:35:28.594Z,13.07
2023-05-10T03:36:18.030Z,13.06
2023-05-10T03:37:18.019Z,13.07
2023-05-10T03:38:18.017Z,13.06
2023-05-10T03:39:17.996Z,13.06
2023-05-10T03:40:18.373Z,13.04
2023-05-10T03:41:18.056Z,13.03
2023-05-10T03:42:18.033Z,13.06
2023-05-10T03:43:17.959Z,13.04
2023-05-10T03:44:17.954Z,13.06
2023-05-10T03:45:17.968Z,13.04
2023-05-10T03:46:17.979Z,13.03
2023-05-10T03:47:17.913Z,13.03
2023-05-10T03:48:17.901Z,13.03
2023-05-10T03:49:17.886Z,13.04
2023-05-10T03:50:18.192Z,13.02
2023-05-10T03:51:17.871Z,13.02
2023-05-10T03:52:17.858Z,13.00
2023-05-10T03:53:17.854Z,13.02
2023-05-10T03:54:17.827Z,13.02
2023-05-10T03:55:17.870Z,13.03
2023-05-10T03:56:17.816Z,13.02
2023-05-10T03:57:17.812Z,13.00
2023-05-10T03:58:17.805Z,12.97
2023-05-10T03:59:17.778Z,12.99
2023-05-10T04:00:17.997Z,13.00
2023-05-10T04:01:17.786Z,12.99
2023-05-10T04:02:17.795Z,12.97
2023-05-10T04:03:17.805Z,12.96
2023-05-10T04:04:17.755Z,12.97
2023-05-10T04:05:17.713Z,12.97
2023-05-10T04:06:17.776Z,12.96
2023-05-10T04:07:17.716Z,12.97
2023-05-10T04:08:17.684Z,12.99
2023-05-10T04:09:17.670Z,12.99
2023-05-10T04:10:18.126Z,12.99
2023-05-10T04:11:17.658Z,13.00
2023-05-10T04:12:17.670Z,13.04
2023-05-10T04:13:17.677Z,13.06
2023-05-10T04:14:17.617Z,13.04
2023-05-10T04:15:17.609Z,13.04
2023-05-10T04:16:17.632Z,13.04
2023-05-10T04:17:17.580Z,13.02
2023-05-10T04:18:17.601Z,13.03
2023-05-10T04:19:17.566Z,13.03
2023-05-10T04:20:17.753Z,13.03
2023-05-10T04:21:17.544Z,13.03
2023-05-10T04:22:17.538Z,13.02
2023-05-10T04:23:17.552Z,13.00
2023-05-10T04:24:17.515Z,13.00
2023-05-10T04:25:17.495Z,13.02
2023-05-10T04:26:17.493Z,13.02
2023-05-10T04:27:17.489Z,13.00
2023-05-10T04:28:17.485Z,12.97
2023-05-10T04:29:17.457Z,13.00
2023-05-10T04:30:17.676Z,13.02
2023-05-10T04:31:17.453Z,13.00
2023-05-10T04:32:17.424Z,13.00
2023-05-10T04:33:17.413Z,13.02
2023-05-10T04:34:17.433Z,13.00
2023-05-10T04:35:17.385Z,13.02
2023-05-10T04:36:17.376Z,13.02
2023-05-10T04:37:17.392Z,13.02
2023-05-10T04:38:17.372Z,13.03
2023-05-10T04:39:17.364Z,13.03
2023-05-10T04:40:17.597Z,13.02
2023-05-10T04:41:17.361Z,13.03
2023-05-10T04:42:17.391Z,13.06
2023-05-10T04:43:17.411Z,13.07
2023-05-10T04:44:17.291Z,13.03
2023-05-10T04:45:17.281Z,13.06
2023-05-10T04:46:17.289Z,13.07
2023-05-10T04:47:17.273Z,13.11
2023-05-10T04:48:17.266Z,13.04
2023-05-10T04:49:17.239Z,13.02
2023-05-10T04:50:17.452Z,13.04
2023-05-10T04:51:17.212Z,13.04
2023-05-10T04:52:17.217Z,13.06
2023-05-10T04:53:17.212Z,13.07
2023-05-10T04:54:17.186Z,13.11
2023-05-10T04:55:17.174Z,13.12
2023-05-10T04:56:17.163Z,13.14
2023-05-10T04:57:17.161Z,13.12
2023-05-10T04:58:17.176Z,13.17
2023-05-10T04:59:17.138Z,13.17
2023-05-10T05:00:17.387Z,13.20
2023-05-10T05:01:17.129Z,13.21
2023-05-10T05:02:17.100Z,13.27
2023-05-10T05:03:17.168Z,13.27
2023-05-10T05:04:17.100Z,13.27
2023-05-10T05:05:17.055Z,13.32
2023-05-10T05:06:17.089Z,13.33
2023-05-10T05:07:17.040Z,13.36
2023-05-10T05:08:17.037Z,13.37
2023-05-10T05:09:17.044Z,13.37
2023-05-10T05:10:17.283Z,13.38
2023-05-10T05:11:17.010Z,13.43
2023-05-10T05:12:16.999Z,13.46
2023-05-10T05:13:17.032Z,13.47
2023-05-10T05:14:16.986Z,13.47
2023-05-10T05:15:16.959Z,13.46
2023-05-10T05:16:16.962Z,13.46
2023-05-10T05:17:16.959Z,13.44
2023-05-10T05:18:16.918Z,13.49
2023-05-10T05:19:16.913Z,13.54
2023-05-10T05:20:17.421Z,13.59
2023-05-10T05:21:16.896Z,13.61
2023-05-10T05:22:17.776Z,13.61
2023-05-10T05:23:16.873Z,13.63
2023-05-10T05:24:16.862Z,13.69
2023-05-10T05:25:16.881Z,13.74
2023-05-10T05:26:16.839Z,13.77
2023-05-10T05:27:16.824Z,13.81
2023-05-10T05:28:16.815Z,13.83
2023-05-10T05:29:16.797Z,13.80
2023-05-10T05:30:16.981Z,13.80
2023-05-10T05:31:16.796Z,13.83
2023-05-10T05:32:16.768Z,13.79
2023-05-10T05:33:16.770Z,13.87
2023-05-10T05:34:16.766Z,13.88
2023-05-10T05:35:16.976Z,13.92
2023-05-10T05:36:16.724Z,13.89
2023-05-10T05:37:16.722Z,13.92
2023-05-10T05:38:16.730Z,13.96
2023-05-10T05:39:16.688Z,13.96
2023-05-10T05:40:16.684Z,14.01
2023-05-10T05:41:16.714Z,13.98
2023-05-10T05:42:16.651Z,13.96
2023-05-10T05:43:16.660Z,13.95
2023-05-10T05:44:16.650Z,13.94
2023-05-10T05:45:16.962Z,13.95
2023-05-10T05:46:16.696Z,13.98
2023-05-10T05:47:16.609Z,13.99
2023-05-10T05:48:16.594Z,13.98
2023-05-10T05:49:16.583Z,13.96
2023-05-10T05:50:16.572Z,13.96
2023-05-10T05:51:16.583Z,13.99
2023-05-10T05:52:16.577Z,14.01
2023-05-10T05:53:16.547Z,14.07
2023-05-10T05:54:16.528Z,14.12
2023-05-10T05:55:16.833Z,14.19
2023-05-10T05:56:16.502Z,14.10
2023-05-10T05:57:16.497Z,14.12
2023-05-10T05:58:16.506Z,14.14
2023-05-10T05:59:16.514Z,14.17
2023-05-10T06:00:16.493Z,14.13
2023-05-10T06:01:16.467Z,14.19
2023-05-10T06:02:16.558Z,14.17
2023-05-10T06:03:16.590Z,14.16
2023-05-10T06:04:16.459Z,14.16
2023-05-10T06:05:16.607Z,14.09
2023-05-10T06:06:16.392Z,14.09
2023-05-10T06:07:16.388Z,14.09
2023-05-10T06:08:16.379Z,14.12
2023-05-10T06:09:16.366Z,14.14
2023-05-10T06:10:16.352Z,14.19
2023-05-10T06:11:16.369Z,14.29
2023-05-10T06:12:16.340Z,14.21
2023-05-10T06:13:16.350Z,14.24
2023-05-10T06:14:16.331Z,14.24
2023-05-10T06:15:16.514Z,14.21
2023-05-10T06:16:16.330Z,14.20
2023-05-10T06:17:16.282Z,14.19
2023-05-10T06:18:16.268Z,14.19
2023-05-10T06:19:16.260Z,14.25
2023-05-10T06:20:16.282Z,14.27
2023-05-10T06:21:16.234Z,14.25
2023-05-10T06:22:16.229Z,14.27
2023-05-10T06:23:16.227Z,14.34
2023-05-10T06:24:16.202Z,14.42
2023-05-10T06:25:16.460Z,14.50
2023-05-10T06:26:16.196Z,14.57
2023-05-10T06:27:16.174Z,14.61
2023-05-10T06:28:16.159Z,14.56
2023-05-10T06:29:16.154Z,14.65
2023-05-10T06:30:16.156Z,14.60
2023-05-10T06:31:16.164Z,14.65
2023-05-10T06:32:16.120Z,14.69
2023-05-10T06:33:16.107Z,14.71
2023-05-10T06:34:16.096Z,14.67
2023-05-10T06:35:16.385Z,14.68
2023-05-10T06:36:16.094Z,14.64
2023-05-10T06:37:16.065Z,14.67
2023-05-10T06:38:16.056Z,14.64
2023-05-10T06:39:16.040Z,14.64
2023-05-10T06:40:16.033Z,14.72
2023-05-10T06:41:16.025Z,14.75
2023-05-10T06:42:16.036Z,14.74
2023-05-10T06:43:16.003Z,14.72
2023-05-10T06:44:15.973Z,14.72
2023-05-10T06:45:16.372Z,14.69
2023-05-10T06:46:15.972Z,14.65
2023-05-10T06:47:15.951Z,14.64
2023-05-10T06:48:15.974Z,14.69
2023-05-10T06:49:15.928Z,14.75
2023-05-10T06:50:15.923Z,14.74
2023-05-10T06:51:15.913Z,14.68
2023-05-10T06:52:15.911Z,14.67
2023-05-10T06:53:15.912Z,14.65
2023-05-10T06:54:15.878Z,14.68
2023-05-10T06:55:16.180Z,14.65
2023-05-10T06:56:15.856Z,14.67
2023-05-10T06:57:27.685Z,14.69
2023-05-10T06:58:15.875Z,14.69
2023-05-10T06:59:15.827Z,14.72
2023-05-10T07:00:16.203Z,14.69
2023-05-10T07:01:15.901Z,14.69
2023-05-10T07:02:15.821Z,14.68
2023-05-10T07:03:15.825Z,14.65
2023-05-10T07:04:15.835Z,14.64
2023-05-10T07:05:15.899Z,14.54
2023-05-10T07:06:29.455Z,14.54
2023-05-10T07:07:15.732Z,14.53
2023-05-10T07:08:15.778Z,14.56
2023-05-10T07:09:15.705Z,14.56
2023-05-10T07:10:15.717Z,14.57
2023-05-10T07:11:15.686Z,14.60
2023-05-10T07:12:16.151Z,14.64
2023-05-10T07:13:15.719Z,14.62
2023-05-10T07:14:15.676Z,14.56
2023-05-10T07:15:15.763Z,14.56
2023-05-10T07:16:15.712Z,14.57
2023-05-10T07:17:15.636Z,14.68
2023-05-10T07:18:15.616Z,14.72
2023-05-10T07:19:15.600Z,14.71
2023-05-10T07:20:15.622Z,14.75
2023-05-10T07:21:15.706Z,14.78
2023-05-10T07:22:15.565Z,14.84
2023-05-10T07:23:15.557Z,14.84
2023-05-10T07:24:15.577Z,14.91
2023-05-10T07:25:15.785Z,14.99
2023-05-10T07:26:15.521Z,15.03
2023-05-10T07:27:15.515Z,15.09
2023-05-10T07:28:15.499Z,15.13
2023-05-10T07:29:15.494Z,15.20
2023-05-10T07:30:15.510Z,15.30
2023-05-10T07:31:15.463Z,15.42
2023-05-10T07:32:15.525Z,15.54
2023-05-10T07:33:15.483Z,15.57
2023-05-10T07:34:15.444Z,15.57
2023-05-10T07:35:15.577Z,15.56
2023-05-10T07:36:15.454Z,15.56
2023-05-10T07:37:15.407Z,15.63
2023-05-10T07:38:15.398Z,15.67
2023-05-10T07:39:21.365Z,15.67
2023-05-10T07:40:15.395Z,15.68
2023-05-10T07:41:15.364Z,15.67
2023-05-10T07:42:15.359Z,15.79
2023-05-10T07:43:15.339Z,15.84
2023-05-10T07:44:15.313Z,15.88
2023-05-10T07:45:15.562Z,15.70
2023-05-10T07:46:15.331Z,15.74
2023-05-10T07:47:15.304Z,15.72
2023-05-10T07:48:15.278Z,15.76
2023-05-10T07:49:15.273Z,15.76
2023-05-10T07:50:15.273Z,15.82
2023-05-10T07:51:15.262Z,15.92
2023-05-10T07:52:15.254Z,15.89
2023-05-10T07:53:15.221Z,16.00
2023-05-10T07:54:15.210Z,15.96
2023-05-10T07:55:15.372Z,15.96
2023-05-10T07:56:15.213Z,15.89
2023-05-10T07:57:15.171Z,15.97
2023-05-10T07:58:15.164Z,16.01
2023-05-10T07:59:15.160Z,16.00
2023-05-10T08:00:15.162Z,15.97
2023-05-10T08:01:15.175Z,16.00
2023-05-10T08:02:15.174Z,16.00
2023-05-10T08:03:15.195Z,15.99
2023-05-10T08:04:15.133Z,16.09
2023-05-10T08:05:15.303Z,16.14
2023-05-10T08:06:15.095Z,16.06
2023-05-10T08:07:15.104Z,16.09
2023-05-10T08:08:15.063Z,16.09
2023-05-10T08:09:15.050Z,16.15
2023-05-10T08:10:15.027Z,16.30
2023-05-10T08:11:15.030Z,16.33
2023-05-10T08:12:15.012Z,16.23
2023-05-10T08:13:15.019Z,16.37
2023-05-10T08:14:14.994Z,16.26
2023-05-10T08:15:15.272Z,16.25
2023-05-10T08:16:15.010Z,16.25
2023-05-10T08:17:14.975Z,16.26
2023-05-10T08:18:15.034Z,16.06
2023-05-10T08:19:14.936Z,16.01
2023-05-10T08:20:14.941Z,16.04
2023-05-10T08:21:14.919Z,16.11
2023-05-10T08:22:14.929Z,16.15
2023-05-10T08:23:14.887Z,15.97
2023-05-10T08:24:14.888Z,15.97
2023-05-10T08:25:15.101Z,15.96
2023-05-10T08:26:14.867Z,16.04
2023-05-10T08:27:14.875Z,16.03
2023-05-10T08:28:14.838Z,16.07
2023-05-10T08:29:14.846Z,16.18
2023-05-10T08:30:14.820Z,16.31
2023-05-10T08:31:14.834Z,16.41
2023-05-10T08:32:14.807Z,16.65
2023-05-10T08:33:14.819Z,16.73
2023-05-10T08:34:14.801Z,16.70
2023-05-10T08:35:14.859Z,16.78
2023-05-10T08:36:14.745Z,16.89
2023-05-10T08:37:14.823Z,17.10
2023-05-10T08:38:14.733Z,16.98
2023-05-10T08:39:26.680Z,16.99
2023-05-10T08:40:14.763Z,16.95
2023-05-10T08:41:14.701Z,16.80
2023-05-10T08:42:14.679Z,16.80
2023-05-10T08:43:14.878Z,16.88
2023-05-10T08:44:14.776Z,16.95
2023-05-10T08:45:16.443Z,17.04
2023-05-10T08:46:15.610Z,17.18
2023-05-10T08:47:14.785Z,17.18
2023-05-10T08:48:14.615Z,17.11
2023-05-10T08:49:14.610Z,17.15
2023-05-10T08:50:14.613Z,17.06
2023-05-10T08:51:14.620Z,16.92
2023-05-10T08:52:14.610Z,16.98
2023-05-10T08:53:14.561Z,16.88
2023-05-10T08:54:14.555Z,16.90
2023-05-10T08:55:14.744Z,16.74
2023-05-10T08:56:14.568Z,16.74
2023-05-10T08:57:14.527Z,16.77
2023-05-10T08:58:14.527Z,16.74
2023-05-10T08:59:14.500Z,16.80
2023-05-10T09:00:14.514Z,16.92
2023-05-10T09:01:14.531Z,16.90
2023-05-10T09:02:15.612Z,16.96
2023-05-10T09:03:14.461Z,17.07
2023-05-10T09:04:14.591Z,17.18
2023-05-10T09:05:14.567Z,17.22
2023-05-10T09:06:14.438Z,17.13
2023-05-10T09:07:14.428Z,17.17
2023-05-10T09:08:14.402Z,17.28
2023-05-10T09:09:14.392Z,17.40
2023-05-10T09:10:14.375Z,17.51
2023-05-10T09:11:14.371Z,17.69
2023-05-10T09:12:14.406Z,17.82
2023-05-10T09:13:14.357Z,17.91
2023-05-10T09:14:14.359Z,18.06
2023-05-10T09:15:14.462Z,18.28
2023-05-10T09:17:14.416Z,18.44
2023-05-10T09:18:14.324Z,18.59
2023-05-10T09:19:14.365Z,18.57
2023-05-10T09:20:14.299Z,18.59
2023-05-10T09:21:14.260Z,18.43
2023-05-10T09:22:14.245Z,18.27
2023-05-10T09:23:14.245Z,18.13
2023-05-10T09:24:14.232Z,17.95
2023-05-10T09:25:14.589Z,17.87
2023-05-10T09:26:14.203Z,17.89
2023-05-10T09:27:14.200Z,17.70
2023-05-10T09:28:14.192Z,17.57
2023-05-10T09:29:15.340Z,17.48
2023-05-10T09:30:14.186Z,17.35
2023-05-10T09:31:14.181Z,17.17
2023-05-10T09:32:14.147Z,17.15
2023-05-10T09:33:14.121Z,17.20
2023-05-10T09:34:14.133Z,17.28
2023-05-10T09:35:14.227Z,17.40
2023-05-10T09:36:14.138Z,17.50
2023-05-10T09:37:14.085Z,17.55
2023-05-10T09:38:14.081Z,17.67
2023-05-10T09:39:14.074Z,17.74
2023-05-10T09:40:14.056Z,17.84
2023-05-10T09:41:14.064Z,17.95
2023-05-10T09:42:14.041Z,18.06
2023-05-10T09:43:14.013Z,17.92
2023-05-10T09:44:14.017Z,17.88
2023-05-10T09:45:14.077Z,17.94
2023-05-10T09:46:14.070Z,17.91
2023-05-10T09:47:13.985Z,18.06
2023-05-10T09:48:13.985Z,18.21
2023-05-10T09:49:13.951Z,18.17
2023-05-10T09:50:13.960Z,18.06
2023-05-10T09:51:13.928Z,18.15
2023-05-10T09:52:13.948Z,18.36
2023-05-10T09:53:13.921Z,18.68
2023-05-10T09:54:13.902Z,18.68
2023-05-10T09:55:14.086Z,18.72
2023-05-10T09:56:13.886Z,18.77
2023-05-10T09:57:13.889Z,18.77
2023-05-10T09:58:13.864Z,18.49
2023-05-10T09:59:13.855Z,18.29
2023-05-10T10:00:13.837Z,18.09
2023-05-10T10:01:13.855Z,17.89
2023-05-10T10:02:13.847Z,17.76
2023-05-10T10:03:13.805Z,17.69
2023-05-10T10:04:13.895Z,17.71
2023-05-10T10:05:13.846Z,17.81
2023-05-10T10:06:26.527Z,17.85
2023-05-10T10:07:13.764Z,17.85
2023-05-10T10:08:13.778Z,17.85
2023-05-10T10:09:13.740Z,17.89
2023-05-10T10:10:13.759Z,17.92
2023-05-10T10:11:13.722Z,18.06
2023-05-10T10:12:13.706Z,18.18
2023-05-10T10:13:13.715Z,18.50
2023-05-10T10:14:13.695Z,18.91
2023-05-10T10:15:15.912Z,19.40
2023-05-10T10:16:13.806Z,19.39
2023-05-10T10:17:13.651Z,19.47
2023-05-10T10:18:13.646Z,19.63
2023-05-10T10:19:13.633Z,19.33
2023-05-10T10:20:13.723Z,19.24
2023-05-10T10:21:13.635Z,19.25
2023-05-10T10:22:13.604Z,19.42
2023-05-10T10:23:15.062Z,19.63
2023-05-10T10:24:13.582Z,19.51
2023-05-10T10:25:13.588Z,19.51
2023-05-10T10:26:13.560Z,19.21
2023-05-10T10:27:13.643Z,19.01
2023-05-10T10:28:13.543Z,18.82
2023-05-10T10:29:13.525Z,18.74
2023-05-10T10:30:13.512Z,18.72
2023-05-10T10:31:13.562Z,18.59
2023-05-10T10:32:13.490Z,18.40
2023-05-10T10:33:27.399Z,18.46
2023-05-10T10:34:13.486Z,18.43
2023-05-10T10:35:13.456Z,18.61
2023-05-10T10:36:13.442Z,18.64
2023-05-10T10:37:13.458Z,18.77
2023-05-10T10:38:13.426Z,18.94
2023-05-10T10:39:13.428Z,19.21
2023-05-10T10:40:13.451Z,19.36
2023-05-10T10:41:13.388Z,19.47
2023-05-10T10:42:13.390Z,19.36
2023-05-10T10:43:13.391Z,19.39
2023-05-10T10:44:13.356Z,19.20
2023-05-10T10:45:13.439Z,19.15
2023-05-10T10:46:13.422Z,19.36
2023-05-10T10:47:13.395Z,19.70
2023-05-10T10:48:13.339Z,20.00
2023-05-10T10:49:13.301Z,20.10
2023-05-10T10:50:13.295Z,20.02
2023-05-10T10:51:13.289Z,19.97
2023-05-10T10:52:13.268Z,20.30
2023-05-10T10:53:13.306Z,20.72
2023-05-10T10:54:13.290Z,20.54
2023-05-10T10:55:13.232Z,20.50
2023-05-10T10:56:13.228Z,21.23
2023-05-10T10:57:13.214Z,21.78
2023-05-10T10:58:13.208Z,22.39
2023-05-10T10:59:13.210Z,22.78
2023-05-10T11:00:13.189Z,23.15
2023-05-10T11:01:13.214Z,22.82
2023-05-10T11:02:13.165Z,22.86
2023-05-10T11:03:13.331Z,22.94
2023-05-10T11:04:13.193Z,23.11
2023-05-10T11:05:13.132Z,22.90
2023-05-10T11:06:13.135Z,22.68
2023-05-10T11:07:13.103Z,22.53
2023-05-10T11:08:13.129Z,21.74
2023-05-10T11:09:13.091Z,21.02
2023-05-10T11:10:13.136Z,20.27
2023-05-10T11:11:13.070Z,20.08
2023-05-10T11:12:13.056Z,19.65
2023-05-10T11:13:13.066Z,19.65
2023-05-10T11:14:13.075Z,20.06
2023-05-10T11:15:13.018Z,20.79
2023-05-10T11:16:13.070Z,21.74
2023-05-10T11:17:13.074Z,21.82
2023-05-10T11:18:13.004Z,21.51
2023-05-10T11:19:13.124Z,21.01
2023-05-10T11:20:13.006Z,20.91
2023-05-10T11:21:12.985Z,20.72
2023-05-10T11:22:12.948Z,20.47
2023-05-10T11:23:12.941Z,20.35
2023-05-10T11:24:12.957Z,20.25
2023-05-10T11:25:12.917Z,20.51
2023-05-10T11:26:12.919Z,20.68
2023-05-10T11:27:12.912Z,21.57
2023-05-10T11:28:12.904Z,22.13
2023-05-10T11:29:12.875Z,22.29
2023-05-10T11:30:12.974Z,22.77
2023-05-10T11:31:12.872Z,22.64
2023-05-10T11:32:12.851Z,22.35
2023-05-10T11:33:12.838Z,22.78
2023-05-10T11:34:12.846Z,23.76
2023-05-10T11:35:12.968Z,24.14
2023-05-10T11:36:12.806Z,24.61
2023-05-10T11:37:12.787Z,23.95
2023-05-10T11:38:12.795Z,22.68
2023-05-10T11:39:12.797Z,21.72
2023-05-10T11:40:12.763Z,20.59
2023-05-10T11:41:12.747Z,20.05
2023-05-10T11:42:12.733Z,19.66
2023-05-10T11:43:12.752Z,19.39
2023-05-10T11:44:12.739Z,18.99
2023-05-10T11:45:12.731Z,18.61
2023-05-10T11:46:12.744Z,18.50
2023-05-10T11:47:12.695Z,18.33
2023-05-10T11:48:12.710Z,18.18
2023-05-10T11:49:12.689Z,17.99
2023-05-10T11:50:12.697Z,17.89
2023-05-10T11:51:12.651Z,17.73
2023-05-10T11:52:12.639Z,17.69
2023-05-10T11:53:12.620Z,17.47
2023-05-10T11:54:12.616Z,17.35
2023-05-10T11:55:12.618Z,17.23
2023-05-10T11:56:12.597Z,17.23
2023-05-10T11:57:12.584Z,17.17
2023-05-10T11:58:12.576Z,17.14
2023-05-10T11:59:12.574Z,17.20
2023-05-10T12:00:12.650Z,17.20
2023-05-10T12:01:12.525Z,17.28
2023-05-10T12:02:12.536Z,17.50
2023-05-10T12:03:12.585Z,17.59
2023-05-10T12:04:12.720Z,17.78
2023-05-10T12:05:12.494Z,18.21
2023-05-10T12:06:12.498Z,19.47
2023-05-10T12:07:12.489Z,20.23
2023-05-10T12:08:12.453Z,21.13
2023-05-10T12:09:12.446Z,22.06
2023-05-10T12:10:12.442Z,22.39
2023-05-10T12:11:12.424Z,23.22
2023-05-10T12:12:12.445Z,22.71
2023-05-10T12:13:12.400Z,22.39
2023-05-10T12:14:12.389Z,21.78
2023-05-10T12:15:12.374Z,21.04
2023-05-10T12:16:12.424Z,20.46
2023-05-10T12:17:12.363Z,21.08
2023-05-10T12:18:12.514Z,21.35
2023-05-10T12:19:12.528Z,21.50
2023-05-10T12:20:12.408Z,21.45
2023-05-10T12:21:12.317Z,21.81
2023-05-10T12:22:12.312Z,21.41
2023-05-10T12:23:12.314Z,21.17
2023-05-10T12:24:12.294Z,20.89
2023-05-10T12:25:12.276Z,20.30
2023-05-10T12:26:12.276Z,20.20
2023-05-10T12:27:12.249Z,21.14
2023-05-10T12:28:12.269Z,21.06
2023-05-10T12:29:12.244Z,21.16
2023-05-10T12:30:12.268Z,21.76
2023-05-10T12:31:12.209Z,21.30
2023-05-10T12:32:12.260Z,21.36
2023-05-10T12:33:12.301Z,21.16
2023-05-10T12:34:12.197Z,20.61
2023-05-10T12:35:12.168Z,20.05
2023-05-10T12:36:12.173Z,19.73
2023-05-10T12:37:12.153Z,19.55
2023-05-10T12:38:12.141Z,19.43
2023-05-10T12:39:12.142Z,19.32
2023-05-10T12:40:12.165Z,19.28
2023-05-10T12:41:12.152Z,19.15
2023-05-10T12:42:12.114Z,18.87
2023-05-10T12:43:12.091Z,18.79
2023-05-10T12:44:12.092Z,18.79
2023-05-10T12:45:12.051Z,18.74
2023-05-10T12:46:12.061Z,18.74
2023-05-10T12:47:12.034Z,18.76
2023-05-10T12:48:12.059Z,18.94
2023-05-10T12:49:12.038Z,19.29
2023-05-10T12:50:12.087Z,19.39
2023-05-10T12:51:11.983Z,19.35
2023-05-10T12:52:11.981Z,19.23
2023-05-10T12:53:11.969Z,19.20